windsock image

Welcome to Bigfield Strip.

anemometer image
     

 Help for dials.  
 
Local Met:

Wind:   
10 Min average:  
211 ° / 5.7 kts (5.2)
219° / 5.4

Temperature:  
14.3°C C
Dew Point:  
12.8°C C
QNH:  
Trend:  
1015.8 mb mb
+0.2mb/hr
BigField Strip. This image updates approximately every minute, it can have a two minute delay.  
 

Humidity:  
91 %
Sunrise:   06:41z
Sunset:   16:53z
Updated:  
  UTC
 
   More met info, trends, radar, history etc. available here   

LUTON Metar   EGGW 231850Z 19007KT 160V230 9999 SCT009 BKN011 BKN017 13/13 Q1017
 
  TAF   2014/10/23 18:15 TAF TAF EGGW 231657Z 2318/2418 22010KT 9999 BKN015 PROB30 TEMPO 2318/2324 7000 -RADZ BKN010 BECMG 2400/2403 7000 -RADZ BKN010 BECMG 2403/2406 BKN008 TEMPO 2403/2415 2500 RADZ BR BKN003 BECMG 2415/2418 9999 NSW FEW010 SCT030
 
BENSON Metar   EGUB 231850Z 17007KT 9999 FEW014 BKN020 15/13 Q1017 WHT TEMPO SCT014 GRN
 
  TAF   2014/10/23 18:03 TAF EGUB 231627Z 2318/2324 18008KT 9999 BKN020 TEMPO 2318/2320 SCT010 PROB30 TEMPO 2318/2324 4000 RADZ SCT006 BECMG 2320/2323 BKN010
 
Big Field view 1 icon   Big Field view 2 icon   Big Field view 3 icon   Chart AL3a in PDF icon   Chart AL3a in Word icon

WARNING:
This information is provided by the Airstrip unofficial weather station, DO NOT depend on the data provided here for any purpose.
This page is updated for latest Metars & TAF's every 5 minutes. Refresh the browser to check for the lastest.
Page designed for a minimum browser size of 1024x768.
© Copyright 2014 BigField Strip. This page auto generated 19:06 UTC - 23/10/2014   Contact Us
Valid HTML 4.01 Transitional     Windows uptime: 3 Days 16 Hours 34 Minutes 28 Seconds    WD started: 02:37 20/10/14    Free memory: 1491MB     Valid CSS!